In Rescue
 
Open Full Screen Window  High Contrast Mode
Wind Gusting 00 knots
05
October 25, 2021 3:50 PM EDT
Weather Information
Wind Direction
  020 °
Wind Speed
  05 kt (6 mph)
Wind Gust
  00 kt (0 mph)
Altimeter
30.02 in
Visibility
10 SM
Temperature
09° C
48° F
Dewpoint
05° C
41° F
Humidity
76%
Sky Condition
Overcast @ 4,200 ft
Broken @ 3,200 ft
Broken @ 2,700 ft
MVFR

METAR KACB 251950Z AUTO 02005KT 10SM BKN027 BKN032 OVC042 09/05 A3002 RMK AO2 T00870049

FAA Disclaimer: The data displayed is for advisory purposes only and is not to be used for flight planning or operations.